Cross Village, MI

1:53 AM EST on February 28, 2015 (GMT -0500)
Upper Bay Shore | Change Station
CLOSE
Current Station
Personal Weather Station
Location: Charlevoix, MI
Elevation: 778 ft
Nearby Weather Stations

Elev 778 ft 45.35 °N, 85.14 °W | Updated 10 seconds ago

Clear
Clear
8.4 °F
Feels Like 1 °F
N
3.8
Wind Variable Wind from South
Gusts 5.6 mph

Today
High -- | Low -- °F
--% Chance of Precip.
Yesterday
High -- | Low -- °F
Precip. -- in
7:20 AM 6:25 PM
Waxing Gibbous, 75% visible
Pressure 30.57 in
Visibility 10.0 miles
Clouds Clear
Windchill 1 °F
Dew Point -17 °F
Humidity 29%
Rainfall 0.00 in
Snow Depth Not available.
UV 0 out of 12
Pollen .30 out of 12
Air Quality Not available.
Flu Activity Not available.
METAR KPLN 280554Z AUTO VRB04KT 10SM CLR M12/M17 A3051 RMK AO2 SLP351 I6000 T11171167 11117 21172 51006

More Conditions Fewer Conditions

Pressure 30.57 in
Visibility 10.0 miles
Clouds Clear
Windchill 1 °F
Dew Point -17 °F
Humidity 29%
Rainfall 0.00 in
Snow Depth Not available.
UV 0 out of 12
Pollen .30 out of 12
Air Quality Not available.
Flu Activity Not available.
METAR KPLN 280554Z AUTO VRB04KT 10SM CLR M12/M17 A3051 RMK AO2 SLP351 I6000 T11171167 11117 21172 51006

More Conditions Fewer Conditions

Nowcast | as of 1:00 am EST on February 28, 2015

At 2 am...mostly cloudy. Chance of flurries. Temperature 6 above. Southwest winds 8 mph. At 4 am...mostly cloudy. Chance of flurries. Temperature 5 above. Southwest winds 6 mph. At 6 am...partly cloudy. Chance of flurries. Temperature 6 above. Southwest winds 6 mph. At 8 am...mostly clear. Temperature 3 above. Southwest winds 8 mph.

×

10-Day Weather Forecast

Almanac

Astronomy

Feb. 28, 2015 Rise Set
Actual Time
Civil Twilight
Nautical Twilight
Astronomical Twilight
Moon
Length of Visible Light
Length of Day
Tomorrow will be .
, % of the Moon is Illuminated

Today's Extremes

State Highs State Lows

Community

WunderPhotos

Upload Photos

1,800,978 photos uploaded!

WunderBlogs® & News

Nearby

Air Quality

  Air Quality AQ Index Pollutant
Not available.

Snow Depth

Station Depth Elevation

Earthquake Activity

City Distance Mag. Time & Date
Minimum magnitude displayed is 2.5.

Coastal Water Temperatures

Place Temperature

Nearby Weather Stations